createdAt,value
2023-05-14T00:01:53.963Z,9.26
2023-05-14T00:04:23.119Z,9.25
2023-05-14T00:06:51.496Z,9.21
2023-05-14T00:09:20.173Z,9.18
2023-05-14T00:11:48.453Z,9.01
2023-05-14T00:14:16.843Z,9.03
2023-05-14T00:16:45.313Z,9.14
2023-05-14T00:19:13.808Z,9.12
2023-05-14T00:21:42.883Z,9.12
2023-05-14T00:24:11.268Z,9.12
2023-05-14T00:26:39.749Z,9.10
2023-05-14T00:29:08.219Z,9.10
2023-05-14T00:31:36.455Z,9.08
2023-05-14T00:34:05.389Z,9.06
2023-05-14T00:36:34.084Z,9.04
2023-05-14T00:39:02.461Z,9.01
2023-05-14T00:41:31.145Z,8.98
2023-05-14T00:43:59.866Z,8.82
2023-05-14T00:46:29.067Z,8.84
2023-05-14T00:48:58.934Z,8.96
2023-05-14T00:51:27.409Z,8.95
2023-05-14T00:53:55.894Z,8.95
2023-05-14T00:56:25.084Z,8.96
2023-05-14T00:58:53.264Z,8.97
2023-05-14T01:01:21.891Z,8.98
2023-05-14T01:03:53.614Z,9.00
2023-05-14T01:06:36.311Z,9.02
2023-05-14T01:09:10.114Z,9.04
2023-05-14T01:11:53.345Z,9.06
2023-05-14T01:14:28.986Z,9.11
2023-05-14T01:17:01.626Z,9.16
2023-05-14T01:19:45.331Z,9.19
2023-05-14T01:22:14.007Z,9.21
2023-05-14T01:24:42.474Z,9.22
2023-05-14T01:27:30.909Z,9.23
2023-05-14T01:30:27.454Z,9.13
2023-05-14T01:33:00.706Z,9.23
2023-05-14T01:35:30.874Z,9.35
2023-05-14T01:38:02.413Z,9.39
2023-05-14T01:40:32.943Z,9.42
2023-05-14T01:43:02.715Z,9.46
2023-05-14T01:45:31.851Z,9.49
2023-05-14T01:48:00.281Z,9.50
2023-05-14T01:50:29.018Z,9.50
2023-05-14T01:52:57.395Z,9.50
2023-05-14T01:55:25.969Z,9.49
2023-05-14T01:57:54.695Z,9.48
2023-05-14T02:00:26.158Z,9.48
2023-05-14T02:02:54.519Z,9.47
2023-05-14T02:05:24.554Z,9.46
2023-05-14T02:07:54.414Z,9.45
2023-05-14T02:10:23.013Z,9.44
2023-05-14T02:12:51.682Z,9.44
2023-05-14T02:15:20.262Z,9.42
2023-05-14T02:17:48.931Z,9.39
2023-05-14T02:20:17.321Z,9.36
2023-05-14T02:22:46.524Z,9.33
2023-05-14T02:25:15.208Z,9.19
2023-05-14T02:27:43.585Z,9.23
2023-05-14T02:30:12.877Z,9.34
2023-05-14T02:32:41.579Z,9.34
2023-05-14T02:35:10.251Z,9.33
2023-05-14T02:37:39.363Z,9.33
2023-05-14T02:40:08.457Z,9.33
2023-05-14T02:42:36.735Z,9.32
2023-05-14T02:45:06.526Z,9.31
2023-05-14T02:47:36.972Z,9.29
2023-05-14T02:50:07.288Z,9.27
2023-05-14T02:52:35.981Z,9.27
2023-05-14T02:55:05.465Z,9.27
2023-05-14T02:57:33.751Z,9.29
2023-05-14T03:00:02.258Z,9.30
2023-05-14T03:02:31.308Z,9.33
2023-05-14T03:05:00.231Z,9.37
2023-05-14T03:07:28.475Z,9.41
2023-05-14T03:09:56.966Z,9.51
2023-05-14T03:12:25.751Z,9.63
2023-05-14T03:14:54.027Z,9.81
2023-05-14T03:17:22.571Z,10.19
2023-05-14T03:19:50.986Z,10.81
2023-05-14T03:22:19.666Z,11.52
2023-05-14T03:24:49.267Z,12.25
2023-05-14T03:27:17.757Z,12.88
2023-05-14T03:29:46.246Z,13.55
2023-05-14T03:32:15.329Z,14.48
2023-05-14T03:34:45.038Z,15.39
2023-05-14T03:37:13.631Z,16.08
2023-05-14T03:39:42.406Z,16.69
2023-05-14T03:42:10.681Z,17.31
2023-05-14T03:44:39.476Z,17.95
2023-05-14T03:47:08.068Z,18.44
2023-05-14T03:49:36.951Z,18.89
2023-05-14T03:52:06.236Z,19.23
2023-05-14T03:54:34.774Z,19.59
2023-05-14T03:57:03.825Z,19.94
2023-05-14T03:59:32.392Z,20.39
2023-05-14T04:02:01.329Z,21.02
2023-05-14T04:04:29.823Z,21.59
2023-05-14T04:06:58.151Z,22.32
2023-05-14T04:09:31.445Z,22.93
2023-05-14T04:12:00.178Z,23.38
2023-05-14T04:14:29.165Z,24.11
2023-05-14T04:16:58.220Z,24.57
2023-05-14T04:19:28.942Z,25.17
2023-05-14T04:22:02.550Z,25.84
2023-05-14T04:24:32.257Z,26.24
2023-05-14T04:27:28.033Z,26.67
2023-05-14T04:29:56.860Z,26.96
2023-05-14T04:32:30.671Z,27.14
2023-05-14T04:35:04.493Z,27.43
2023-05-14T04:37:33.768Z,27.61
2023-05-14T04:40:07.367Z,27.83
2023-05-14T04:42:37.892Z,28.30
2023-05-14T04:45:09.443Z,28.67
2023-05-14T04:47:38.053Z,29.04
2023-05-14T04:50:10.708Z,29.30
2023-05-14T04:52:39.696Z,29.64
2023-05-14T04:55:10.119Z,29.85
2023-05-14T04:57:38.605Z,29.91
2023-05-14T05:00:10.169Z,30.22
2023-05-14T05:02:43.874Z,30.22
2023-05-14T05:05:16.135Z,30.43
2023-05-14T05:07:44.407Z,30.43
2023-05-14T05:10:17.809Z,30.45
2023-05-14T05:12:46.383Z,30.02
2023-05-14T05:15:14.553Z,30.24
2023-05-14T05:17:43.319Z,30.38
2023-05-14T05:20:13.675Z,30.33
2023-05-14T05:22:42.665Z,30.72
2023-05-14T05:25:14.224Z,31.06
2023-05-14T05:27:42.998Z,30.88
2023-05-14T05:30:12.925Z,31.04
2023-05-14T05:32:41.740Z,30.78
2023-05-14T05:35:11.406Z,30.34
2023-05-14T05:37:46.032Z,30.40
2023-05-14T05:40:16.409Z,30.58
2023-05-14T05:42:44.733Z,30.54
2023-05-14T05:45:16.896Z,30.35
2023-05-14T05:47:47.145Z,29.87
2023-05-14T05:50:20.131Z,30.04
2023-05-14T05:52:54.012Z,30.10
2023-05-14T05:55:22.482Z,29.89
2023-05-14T05:58:18.256Z,29.77
2023-05-14T06:01:11.937Z,30.20
2023-05-14T06:03:40.576Z,30.14
2023-05-14T06:06:09.760Z,30.23
2023-05-14T06:09:09.474Z,30.21
2023-05-14T06:11:37.755Z,29.94
2023-05-14T06:14:08.496Z,29.75
2023-05-14T06:16:37.089Z,29.52
2023-05-14T06:19:06.556Z,29.54
2023-05-14T06:21:40.845Z,29.43
2023-05-14T06:24:10.293Z,29.30
2023-05-14T06:26:46.027Z,29.25
2023-05-14T06:29:16.363Z,29.15
2023-05-14T06:31:45.022Z,29.01
2023-05-14T06:34:15.986Z,28.98
2023-05-14T06:36:44.265Z,29.23
2023-05-14T06:39:13.689Z,29.00
2023-05-14T06:41:42.137Z,29.41
2023-05-14T06:44:12.662Z,29.54
2023-05-14T06:46:41.051Z,29.61
2023-05-14T06:49:10.254Z,29.39
2023-05-14T06:51:41.072Z,29.24
2023-05-14T06:54:09.762Z,29.40
2023-05-14T06:56:38.339Z,29.70
2023-05-14T06:59:07.738Z,29.65
2023-05-14T07:01:39.255Z,29.53
2023-05-14T07:04:08.647Z,29.36
2023-05-14T07:06:37.184Z,28.90
2023-05-14T07:09:06.702Z,29.00
2023-05-14T07:11:35.359Z,28.95
2023-05-14T07:14:06.315Z,28.79
2023-05-14T07:16:34.667Z,28.82
2023-05-14T07:19:02.761Z,28.91
2023-05-14T07:21:36.603Z,28.90
2023-05-14T07:24:05.655Z,28.89
2023-05-14T07:26:34.538Z,29.00
2023-05-14T07:29:08.967Z,28.81
2023-05-14T07:31:37.496Z,28.95
2023-05-14T07:34:05.922Z,29.02
2023-05-14T07:36:34.704Z,28.99
2023-05-14T07:39:03.492Z,29.19
2023-05-14T07:41:32.996Z,29.09
2023-05-14T07:44:01.696Z,28.93
2023-05-14T07:46:55.227Z,28.82
2023-05-14T07:49:23.626Z,28.62
2023-05-14T07:51:53.025Z,28.74
2023-05-14T07:54:23.972Z,28.50
2023-05-14T07:56:52.491Z,28.42
2023-05-14T07:59:21.886Z,28.61
2023-05-14T08:01:50.297Z,28.64
2023-05-14T08:04:24.275Z,28.68
2023-05-14T08:06:52.816Z,28.54
2023-05-14T08:09:21.468Z,28.46
2023-05-14T08:11:50.086Z,28.16
2023-05-14T08:14:18.665Z,27.93
2023-05-14T08:16:47.982Z,27.74
2023-05-14T08:19:16.601Z,27.56
2023-05-14T08:21:45.343Z,27.31
2023-05-14T08:24:14.423Z,27.29
2023-05-14T08:26:43.220Z,27.14
2023-05-14T08:29:16.460Z,26.97
2023-05-14T08:31:45.812Z,26.84
2023-05-14T08:34:15.280Z,26.64
2023-05-14T08:36:43.678Z,26.17
2023-05-14T08:39:12.177Z,25.90
2023-05-14T08:41:41.677Z,25.63
2023-05-14T08:44:20.914Z,25.41
2023-05-14T08:46:51.860Z,25.40
2023-05-14T08:49:47.085Z,25.25
2023-05-14T08:52:18.914Z,25.01
2023-05-14T08:54:50.981Z,24.90
2023-05-14T08:57:21.819Z,24.90
2023-05-14T08:59:51.723Z,24.81
2023-05-14T09:02:28.010Z,24.74
2023-05-14T09:04:59.237Z,24.65
2023-05-14T09:07:28.838Z,24.69
2023-05-14T09:09:57.425Z,24.82
2023-05-14T09:12:26.923Z,24.72
2023-05-14T09:14:55.092Z,24.66
2023-05-14T09:17:28.211Z,24.55
2023-05-14T09:19:57.177Z,24.47
2023-05-14T09:22:30.646Z,24.45
2023-05-14T09:25:04.171Z,24.54
2023-05-14T09:27:34.703Z,24.50
2023-05-14T09:30:13.852Z,24.42
2023-05-14T09:32:44.805Z,24.46
2023-05-14T09:35:24.196Z,24.47
2023-05-14T09:37:55.974Z,24.31
2023-05-14T09:40:24.987Z,24.14
2023-05-14T09:42:56.393Z,24.16
2023-05-14T09:45:24.685Z,24.15
2023-05-14T09:47:53.609Z,23.95
2023-05-14T09:50:22.889Z,23.82
2023-05-14T09:52:51.756Z,23.82
2023-05-14T09:55:21.358Z,23.91
2023-05-14T09:57:50.452Z,24.05
2023-05-14T10:00:19.552Z,24.10
2023-05-14T10:02:49.185Z,24.08
2023-05-14T10:05:19.714Z,24.15
2023-05-14T10:07:52.074Z,24.05
2023-05-14T10:10:24.798Z,23.94
2023-05-14T10:12:58.113Z,24.05
2023-05-14T10:15:53.322Z,24.07
2023-05-14T10:18:24.370Z,23.91
2023-05-14T10:21:06.987Z,23.91
2023-05-14T10:23:40.992Z,24.08
2023-05-14T10:26:11.323Z,24.10
2023-05-14T10:28:40.935Z,24.17
2023-05-14T10:31:11.094Z,24.08
2023-05-14T10:33:50.844Z,24.03
2023-05-14T10:36:20.898Z,24.09
2023-05-14T10:38:56.552Z,23.97
2023-05-14T10:41:24.824Z,24.01
2023-05-14T10:43:53.102Z,23.90
2023-05-14T10:46:22.040Z,23.83
2023-05-14T10:48:52.002Z,23.86
2023-05-14T10:51:23.363Z,23.92
2023-05-14T10:53:55.327Z,23.97
2023-05-14T10:56:24.924Z,23.88
2023-05-14T10:58:58.831Z,23.92
2023-05-14T11:01:29.067Z,24.02
2023-05-14T11:03:58.816Z,24.06
2023-05-14T11:06:28.572Z,23.99
2023-05-14T11:08:58.281Z,23.87
2023-05-14T11:11:26.769Z,23.72
2023-05-14T11:13:57.703Z,23.76
2023-05-14T11:16:31.074Z,23.76
2023-05-14T11:19:05.166Z,23.77
2023-05-14T11:21:33.940Z,23.68
2023-05-14T11:24:04.216Z,23.70
2023-05-14T11:26:33.221Z,23.67
2023-05-14T11:29:02.117Z,23.58
2023-05-14T11:31:31.521Z,23.56
2023-05-14T11:34:07.360Z,23.46
2023-05-14T11:36:39.265Z,23.40
2023-05-14T11:39:08.511Z,23.34
2023-05-14T11:41:36.883Z,23.25
2023-05-14T11:44:06.759Z,23.13
2023-05-14T11:46:36.574Z,23.09
2023-05-14T11:49:07.139Z,22.97
2023-05-14T11:51:36.848Z,22.92
2023-05-14T11:54:05.735Z,22.93
2023-05-14T11:56:33.910Z,22.89
2023-05-14T11:59:02.179Z,22.96
2023-05-14T12:01:37.316Z,22.92
2023-05-14T12:04:07.236Z,22.96
2023-05-14T12:06:35.811Z,22.97
2023-05-14T12:09:06.956Z,22.92
2023-05-14T12:11:37.591Z,22.86
2023-05-14T12:14:16.348Z,22.76
2023-05-14T12:16:46.590Z,22.70
2023-05-14T12:19:17.403Z,22.61
2023-05-14T12:21:48.405Z,22.50
2023-05-14T12:24:20.262Z,22.48
2023-05-14T12:26:52.041Z,22.45
2023-05-14T12:29:22.244Z,22.40
2023-05-14T12:31:51.364Z,22.40
2023-05-14T12:34:19.920Z,22.31
2023-05-14T12:36:48.406Z,22.28
2023-05-14T12:39:17.383Z,22.22
2023-05-14T12:41:45.975Z,22.22
2023-05-14T12:44:14.247Z,22.13
2023-05-14T12:46:42.660Z,22.10
2023-05-14T12:49:11.837Z,21.96
2023-05-14T12:51:40.199Z,21.90
2023-05-14T12:54:08.778Z,21.78
2023-05-14T12:56:39.308Z,21.65
2023-05-14T12:59:07.993Z,21.52
2023-05-14T13:01:38.419Z,21.33
2023-05-14T13:04:07.039Z,21.14
2023-05-14T13:06:35.280Z,20.98
2023-05-14T13:09:04.597Z,20.85
2023-05-14T13:11:33.769Z,20.79
2023-05-14T13:14:03.281Z,20.73
2023-05-14T13:16:31.719Z,20.71
2023-05-14T13:19:00.589Z,20.69
2023-05-14T13:21:29.037Z,20.68
2023-05-14T13:23:57.196Z,20.56
2023-05-14T13:26:28.640Z,20.55
2023-05-14T13:28:57.115Z,20.58
2023-05-14T13:31:25.890Z,20.58
2023-05-14T13:33:55.008Z,20.53
2023-05-14T13:36:23.283Z,20.35
2023-05-14T13:38:51.556Z,20.30
2023-05-14T13:41:19.933Z,20.29
2023-05-14T13:43:48.516Z,20.15
2023-05-14T13:46:17.183Z,20.11
2023-05-14T13:48:46.088Z,20.09
2023-05-14T13:51:14.360Z,20.12
2023-05-14T13:53:42.841Z,20.06
2023-05-14T13:56:11.123Z,19.99
2023-05-14T13:58:39.910Z,19.97
2023-05-14T14:01:09.542Z,19.96
2023-05-14T14:03:38.336Z,19.96
2023-05-14T14:06:06.677Z,19.88
2023-05-14T14:08:34.852Z,19.90
2023-05-14T14:11:03.318Z,19.84
2023-05-14T14:13:31.823Z,19.72
2023-05-14T14:16:00.545Z,19.76
2023-05-14T14:18:28.883Z,19.77
2023-05-14T14:20:57.762Z,19.77
2023-05-14T14:23:26.141Z,19.64
2023-05-14T14:25:54.823Z,19.56
2023-05-14T14:28:23.201Z,19.44
2023-05-14T14:30:51.625Z,19.41
2023-05-14T14:33:20.065Z,19.35
2023-05-14T14:35:48.455Z,19.33
2023-05-14T14:38:19.638Z,19.26
2023-05-14T14:40:48.091Z,19.11
2023-05-14T14:43:17.160Z,18.99
2023-05-14T14:45:48.226Z,18.86
2023-05-14T14:48:25.691Z,18.75
2023-05-14T14:50:56.427Z,18.66
2023-05-14T14:53:25.758Z,18.62
2023-05-14T14:55:54.300Z,18.60
2023-05-14T14:58:24.067Z,18.53
2023-05-14T15:00:55.714Z,18.41
2023-05-14T15:03:25.377Z,18.36
2023-05-14T15:05:54.165Z,18.32
2023-05-14T15:08:30.209Z,18.24
2023-05-14T15:10:59.830Z,18.17
2023-05-14T15:13:29.563Z,18.16
2023-05-14T15:15:57.917Z,18.12
2023-05-14T15:18:27.166Z,18.03
2023-05-14T15:20:57.137Z,17.98
2023-05-14T15:23:25.300Z,17.89
2023-05-14T15:25:53.884Z,17.82
2023-05-14T15:28:22.068Z,17.84
2023-05-14T15:30:50.640Z,17.82
2023-05-14T15:33:19.934Z,17.76
2023-05-14T15:35:48.317Z,17.74
2023-05-14T15:38:16.705Z,17.71
2023-05-14T15:40:45.169Z,17.68
2023-05-14T15:43:13.552Z,17.65
2023-05-14T15:45:45.402Z,17.62
2023-05-14T15:48:13.616Z,17.60
2023-05-14T15:50:42.468Z,17.56
2023-05-14T15:53:10.964Z,17.55
2023-05-14T15:55:39.224Z,17.53
2023-05-14T15:58:07.394Z,17.48
2023-05-14T16:00:35.566Z,17.46
2023-05-14T16:03:04.031Z,17.40
2023-05-14T16:05:32.948Z,17.35
2023-05-14T16:08:01.423Z,17.26
2023-05-14T16:10:30.044Z,17.21
2023-05-14T16:12:58.716Z,17.10
2023-05-14T16:15:27.480Z,17.04
2023-05-14T16:17:56.238Z,16.95
2023-05-14T16:20:25.028Z,16.87
2023-05-14T16:22:53.626Z,16.80
2023-05-14T16:25:21.898Z,16.71
2023-05-14T16:27:50.275Z,16.66
2023-05-14T16:30:18.674Z,16.60
2023-05-14T16:32:50.201Z,16.51
2023-05-14T16:35:19.306Z,16.42
2023-05-14T16:37:47.580Z,16.34
2023-05-14T16:40:16.568Z,16.25
2023-05-14T16:42:47.084Z,16.15
2023-05-14T16:45:17.421Z,16.05
2023-05-14T16:47:45.924Z,15.95
2023-05-14T16:50:14.384Z,15.85
2023-05-14T16:52:42.664Z,15.75
2023-05-14T16:55:11.127Z,15.65
2023-05-14T16:57:39.406Z,15.45
2023-05-14T17:00:09.716Z,15.39
2023-05-14T17:02:38.431Z,15.41
2023-05-14T17:05:08.020Z,15.33
2023-05-14T17:07:39.520Z,15.25
2023-05-14T17:10:08.566Z,15.15
2023-05-14T17:12:37.004Z,15.07
2023-05-14T17:15:07.471Z,14.99
2023-05-14T17:17:35.754Z,14.91
2023-05-14T17:20:06.268Z,14.82
2023-05-14T17:22:34.753Z,14.75
2023-05-14T17:25:03.123Z,14.58
2023-05-14T17:27:33.465Z,14.47
2023-05-14T17:30:03.885Z,14.42
2023-05-14T17:32:32.559Z,14.43
2023-05-14T17:35:01.087Z,14.37
2023-05-14T17:37:29.725Z,14.29
2023-05-14T17:39:58.001Z,14.25
2023-05-14T17:42:26.474Z,14.18
2023-05-14T17:44:54.851Z,14.12
2023-05-14T17:47:23.334Z,14.05
2023-05-14T17:49:51.719Z,13.96
2023-05-14T17:52:21.019Z,13.79
2023-05-14T17:54:49.499Z,13.71
2023-05-14T17:57:17.782Z,13.73
2023-05-14T17:59:46.167Z,13.61
2023-05-14T18:02:14.533Z,13.50
2023-05-14T18:04:43.115Z,13.39
2023-05-14T18:07:11.394Z,13.31
2023-05-14T18:09:39.796Z,13.24
2023-05-14T18:12:08.980Z,13.06
2023-05-14T18:14:37.242Z,13.06
2023-05-14T18:17:06.488Z,13.11
2023-05-14T18:19:35.027Z,13.10
2023-05-14T18:22:03.200Z,13.09
2023-05-14T18:24:31.580Z,13.08
2023-05-14T18:27:00.803Z,13.06
2023-05-14T18:29:29.150Z,13.03
2023-05-14T18:31:57.800Z,12.87
2023-05-14T18:34:26.110Z,12.87
2023-05-14T18:47:44.594Z,13.16
2023-05-14T18:50:12.847Z,13.18
2023-05-14T18:52:41.229Z,13.12
2023-05-14T18:55:10.101Z,13.07
2023-05-14T18:57:38.485Z,13.01
2023-05-14T19:00:08.097Z,12.93
2023-05-14T19:02:36.674Z,12.74
2023-05-14T19:05:06.708Z,12.74
2023-05-14T19:07:35.067Z,12.81
2023-05-14T19:10:03.959Z,12.79
2023-05-14T19:12:32.232Z,12.76
2023-05-14T19:15:00.615Z,12.70
2023-05-14T19:17:29.720Z,12.62
2023-05-14T19:19:58.486Z,12.51
2023-05-14T19:22:27.176Z,12.31
2023-05-14T19:24:55.455Z,12.27
2023-05-14T19:27:24.554Z,12.27
2023-05-14T19:29:53.029Z,12.35
2023-05-14T19:32:21.192Z,12.38
2023-05-14T19:39:22.465Z,12.38
2023-05-14T19:41:50.749Z,12.53
2023-05-14T19:44:19.109Z,12.54
2023-05-14T19:46:47.641Z,12.51
2023-05-14T19:49:15.983Z,12.45
2023-05-14T19:51:44.259Z,12.42
2023-05-14T20:54:52.875Z,14.06
2023-05-14T20:57:21.352Z,13.79
2023-05-14T20:59:49.928Z,13.53
2023-05-14T21:02:18.602Z,13.45
2023-05-14T21:04:47.768Z,13.39
2023-05-14T21:07:16.299Z,13.22
2023-05-14T21:09:46.625Z,13.04
2023-05-14T21:12:14.697Z,12.88
2023-05-14T21:14:43.162Z,12.71
2023-05-14T21:17:11.658Z,12.48
2023-05-14T21:19:40.742Z,12.42
2023-05-14T21:22:09.123Z,12.45
2023-05-14T21:24:37.391Z,12.39
2023-05-14T21:27:06.189Z,12.35
2023-05-14T21:29:34.573Z,12.30
2023-05-14T21:32:03.485Z,12.22
2023-05-14T21:34:32.335Z,12.05
2023-05-14T21:37:01.034Z,12.02
2023-05-14T21:39:29.295Z,12.04
2023-05-14T21:41:57.566Z,11.97
2023-05-14T21:44:25.757Z,11.91
2023-05-14T21:46:54.139Z,11.87
2023-05-14T21:49:22.405Z,11.82
2023-05-14T21:51:53.285Z,11.62
2023-05-14T21:54:22.017Z,11.63
2023-05-14T21:56:50.291Z,11.73
2023-05-14T21:59:18.563Z,11.72
2023-05-14T22:02:05.675Z,11.72
2023-05-14T22:04:35.491Z,11.70
2023-05-14T22:07:04.615Z,11.52
2023-05-14T22:09:32.865Z,11.53
2023-05-14T22:12:01.450Z,11.64
2023-05-14T22:14:29.725Z,11.63
2023-05-14T22:16:57.951Z,11.53
2023-05-14T22:19:27.608Z,11.45
2023-05-14T22:21:55.781Z,11.34
2023-05-14T22:24:24.264Z,11.17
2023-05-14T22:26:52.547Z,11.15
2023-05-14T22:29:20.928Z,11.24
2023-05-14T22:31:49.235Z,11.22
2023-05-14T22:34:17.969Z,11.19
2023-05-14T22:36:46.351Z,11.14
2023-05-14T22:39:14.523Z,11.01
2023-05-14T22:41:42.809Z,11.02
2023-05-14T22:44:11.174Z,11.12
2023-05-14T22:46:39.485Z,11.13
2023-05-14T22:49:08.030Z,11.13
2023-05-14T22:51:36.205Z,11.10
2023-05-14T22:54:04.690Z,11.08
2023-05-14T22:56:33.060Z,10.94
2023-05-14T22:59:01.758Z,10.97
2023-05-14T23:01:31.334Z,11.10
2023-05-14T23:03:59.855Z,11.09
2023-05-14T23:06:28.213Z,11.05
2023-05-14T23:08:56.599Z,11.00
2023-05-14T23:11:26.860Z,10.86
2023-05-14T23:13:55.088Z,10.85
2023-05-14T23:16:23.569Z,10.92
2023-05-14T23:18:52.284Z,10.89
2023-05-14T23:21:20.915Z,10.89
2023-05-14T23:23:49.518Z,10.91
2023-05-14T23:26:18.108Z,10.82
2023-05-14T23:28:47.601Z,10.89
2023-05-14T23:31:15.879Z,11.03
2023-05-14T23:33:44.877Z,11.06
2023-05-14T23:36:13.458Z,11.08
2023-05-14T23:38:42.138Z,11.08
2023-05-14T23:41:10.515Z,10.95
2023-05-14T23:43:38.904Z,10.97
2023-05-14T23:46:09.057Z,11.03
2023-05-14T23:48:37.492Z,11.01
2023-05-14T23:51:06.070Z,10.97
2023-05-14T23:53:34.350Z,10.89
2023-05-14T23:56:02.832Z,10.73
2023-05-14T23:58:32.538Z,10.73
